sensor_id;sensor_type;location;lat;lon;timestamp;pressure;altitude;pressure_sealevel;temperature;humidity
64644;BME280;51056;50.330;7.914;2023-06-22T00:00:31;100704.78;;;21.58;75.35
64644;BME280;51056;50.330;7.914;2023-06-22T00:03:35;100706.25;;;21.43;76.48
64644;BME280;51056;50.330;7.914;2023-06-22T00:06:38;100710.41;;;21.55;75.74
64644;BME280;51056;50.330;7.914;2023-06-22T00:09:41;100716.88;;;21.43;76.60
64644;BME280;51056;50.330;7.914;2023-06-22T00:12:45;100719.78;;;21.50;76.81
64644;BME280;51056;50.330;7.914;2023-06-22T00:15:48;100717.09;;;21.59;76.49
64644;BME280;51056;50.330;7.914;2023-06-22T00:18:52;100740.38;;;21.57;76.87
64644;BME280;51056;50.330;7.914;2023-06-22T00:21:55;100740.09;;;21.51;78.28
64644;BME280;51056;50.330;7.914;2023-06-22T00:24:58;100750.41;;;21.64;77.96
64644;BME280;51056;50.330;7.914;2023-06-22T00:28:03;100753.66;;;21.57;78.77
64644;BME280;51056;50.330;7.914;2023-06-22T00:31:07;100757.78;;;21.42;80.00
64644;BME280;51056;50.330;7.914;2023-06-22T00:34:10;100756.94;;;21.42;80.62
64644;BME280;51056;50.330;7.914;2023-06-22T00:37:13;100759.06;;;21.38;80.72
64644;BME280;51056;50.330;7.914;2023-06-22T00:40:17;100761.09;;;21.34;81.06
64644;BME280;51056;50.330;7.914;2023-06-22T00:43:24;100753.03;;;21.26;81.54
64644;BME280;51056;50.330;7.914;2023-06-22T00:46:27;100758.09;;;21.20;82.14
64644;BME280;51056;50.330;7.914;2023-06-22T00:49:31;100765.34;;;21.18;83.13
64644;BME280;51056;50.330;7.914;2023-06-22T00:52:35;100768.72;;;21.20;83.49
64644;BME280;51056;50.330;7.914;2023-06-22T00:55:42;100771.19;;;21.31;82.85
64644;BME280;51056;50.330;7.914;2023-06-22T00:58:49;100784.94;;;21.36;82.81
64644;BME280;51056;50.330;7.914;2023-06-22T01:01:55;100778.78;;;21.26;83.42
64644;BME280;51056;50.330;7.914;2023-06-22T01:04:59;100779.91;;;21.13;84.34
64644;BME280;51056;50.330;7.914;2023-06-22T01:11:36;100777.66;;;21.09;84.97
64644;BME280;51056;50.330;7.914;2023-06-22T01:14:44;100786.63;;;21.08;85.54
64644;BME280;51056;50.330;7.914;2023-06-22T01:17:50;100773.06;;;21.01;85.96
64644;BME280;51056;50.330;7.914;2023-06-22T01:20:56;100755.75;;;20.97;86.60
64644;BME280;51056;50.330;7.914;2023-06-22T01:24:24;100749.72;;;20.95;87.23
64644;BME280;51056;50.330;7.914;2023-06-22T01:30:59;100748.03;;;20.94;86.69
64644;BME280;51056;50.330;7.914;2023-06-22T01:34:09;100743.28;;;20.98;86.85
64644;BME280;51056;50.330;7.914;2023-06-22T01:37:14;100744.00;;;21.00;87.48
64644;BME280;51056;50.330;7.914;2023-06-22T01:40:19;100757.13;;;20.92;88.21
64644;BME280;51056;50.330;7.914;2023-06-22T01:43:25;100756.44;;;20.89;87.97
64644;BME280;51056;50.330;7.914;2023-06-22T01:46:29;100747.88;;;21.05;87.35
64644;BME280;51056;50.330;7.914;2023-06-22T01:49:32;100739.66;;;20.89;88.63
64644;BME280;51056;50.330;7.914;2023-06-22T01:52:36;100736.16;;;20.79;89.59
64644;BME280;51056;50.330;7.914;2023-06-22T01:55:39;100732.97;;;20.65;89.97
64644;BME280;51056;50.330;7.914;2023-06-22T01:58:50;100710.03;;;20.84;88.84
64644;BME280;51056;50.330;7.914;2023-06-22T02:02:07;100697.66;;;20.93;87.79
64644;BME280;51056;50.330;7.914;2023-06-22T02:05:16;100692.66;;;20.80;88.87
64644;BME280;51056;50.330;7.914;2023-06-22T02:08:22;100702.47;;;20.70;89.68
64644;BME280;51056;50.330;7.914;2023-06-22T02:11:29;100714.91;;;20.69;89.42
64644;BME280;51056;50.330;7.914;2023-06-22T02:14:34;100739.09;;;20.56;90.60
64644;BME280;51056;50.330;7.914;2023-06-22T02:17:38;100746.38;;;20.74;89.86
64644;BME280;51056;50.330;7.914;2023-06-22T02:20:41;100746.38;;;20.74;89.84
64644;BME280;51056;50.330;7.914;2023-06-22T02:23:45;100732.69;;;20.78;89.61
64644;BME280;51056;50.330;7.914;2023-06-22T02:26:49;100744.97;;;20.70;90.13
64644;BME280;51056;50.330;7.914;2023-06-22T02:29:52;100754.78;;;20.69;91.19
64644;BME280;51056;50.330;7.914;2023-06-22T02:32:55;100757.72;;;20.76;90.63
64644;BME280;51056;50.330;7.914;2023-06-22T02:36:01;100747.34;;;20.82;90.67
64644;BME280;51056;50.330;7.914;2023-06-22T02:39:07;100730.41;;;20.83;91.04
64644;BME280;51056;50.330;7.914;2023-06-22T02:42:11;100713.09;;;20.60;92.18
64644;BME280;51056;50.330;7.914;2023-06-22T02:45:14;100697.41;;;20.47;93.24
64644;BME280;51056;50.330;7.914;2023-06-22T02:48:20;100700.22;;;20.46;93.44
64644;BME280;51056;50.330;7.914;2023-06-22T02:51:23;100708.88;;;20.48;93.39
64644;BME280;51056;50.330;7.914;2023-06-22T02:54:26;100699.09;;;20.38;94.46
64644;BME280;51056;50.330;7.914;2023-06-22T02:57:31;100693.78;;;20.38;94.30
64644;BME280;51056;50.330;7.914;2023-06-22T03:00:34;100686.66;;;20.39;94.09
64644;BME280;51056;50.330;7.914;2023-06-22T03:03:43;100688.19;;;20.32;94.52
64644;BME280;51056;50.330;7.914;2023-06-22T03:06:46;100688.19;;;20.32;94.32
64644;BME280;51056;50.330;7.914;2023-06-22T03:09:54;100678.97;;;20.26;94.34
64644;BME280;51056;50.330;7.914;2023-06-22T03:12:58;100688.72;;;20.26;94.72
64644;BME280;51056;50.330;7.914;2023-06-22T03:16:08;100691.94;;;20.29;94.65
64644;BME280;51056;50.330;7.914;2023-06-22T03:19:16;100696.31;;;20.50;93.27
64644;BME280;51056;50.330;7.914;2023-06-22T03:22:20;100697.44;;;20.57;92.80
64644;BME280;51056;50.330;7.914;2023-06-22T03:25:24;100702.72;;;20.37;93.69
64644;BME280;51056;50.330;7.914;2023-06-22T03:28:27;100698.53;;;20.35;94.34
64644;BME280;51056;50.330;7.914;2023-06-22T03:31:30;100695.47;;;20.30;94.54
64644;BME280;51056;50.330;7.914;2023-06-22T03:34:35;100699.91;;;20.19;95.08
64644;BME280;51056;50.330;7.914;2023-06-22T03:37:41;100705.66;;;20.25;94.92
64644;BME280;51056;50.330;7.914;2023-06-22T03:40:45;100695.47;;;20.39;94.64
64644;BME280;51056;50.330;7.914;2023-06-22T03:43:48;100696.03;;;20.43;93.42
64644;BME280;51056;50.330;7.914;2023-06-22T03:46:52;100697.13;;;20.40;93.49
64644;BME280;51056;50.330;7.914;2023-06-22T03:49:57;100686.78;;;20.18;94.42
64644;BME280;51056;50.330;7.914;2023-06-22T03:53:00;100698.50;;;20.15;95.64
64644;BME280;51056;50.330;7.914;2023-06-22T03:56:04;100690.44;;;20.27;95.60
64644;BME280;51056;50.330;7.914;2023-06-22T03:59:07;100699.78;;;20.31;94.88
64644;BME280;51056;50.330;7.914;2023-06-22T04:02:10;100695.44;;;20.10;95.67
64644;BME280;51056;50.330;7.914;2023-06-22T04:05:14;100693.06;;;20.07;96.54
64644;BME280;51056;50.330;7.914;2023-06-22T04:08:17;100695.28;;;20.02;97.20
64644;BME280;51056;50.330;7.914;2023-06-22T04:11:26;100698.91;;;20.01;97.23
64644;BME280;51056;50.330;7.914;2023-06-22T04:14:30;100710.22;;;20.03;97.05
64644;BME280;51056;50.330;7.914;2023-06-22T04:17:33;100713.16;;;20.10;96.38
64644;BME280;51056;50.330;7.914;2023-06-22T04:20:37;100717.91;;;20.06;96.92
64644;BME280;51056;50.330;7.914;2023-06-22T04:27:34;100718.50;;;20.29;95.78
64644;BME280;51056;50.330;7.914;2023-06-22T04:30:44;100706.91;;;20.20;95.95
64644;BME280;51056;50.330;7.914;2023-06-22T04:33:50;100703.13;;;20.13;96.96
64644;BME280;51056;50.330;7.914;2023-06-22T04:36:54;100701.72;;;20.09;97.56
64644;BME280;51056;50.330;7.914;2023-06-22T04:39:57;100701.72;;;20.09;98.06
64644;BME280;51056;50.330;7.914;2023-06-22T04:43:01;100695.44;;;20.10;97.74
64644;BME280;51056;50.330;7.914;2023-06-22T04:46:05;100692.78;;;20.10;97.55
64644;BME280;51056;50.330;7.914;2023-06-22T04:49:09;100700.47;;;20.13;97.55
64644;BME280;51056;50.330;7.914;2023-06-22T04:52:13;100701.06;;;20.27;97.36
64644;BME280;51056;50.330;7.914;2023-06-22T04:55:23;100695.72;;;20.17;97.60
64644;BME280;51056;50.330;7.914;2023-06-22T04:58:28;100692.09;;;20.08;98.19
64644;BME280;51056;50.330;7.914;2023-06-22T05:01:35;100693.91;;;20.17;98.31
64644;BME280;51056;50.330;7.914;2023-06-22T05:04:39;100689.56;;;20.16;98.22
64644;BME280;51056;50.330;7.914;2023-06-22T05:07:44;100693.47;;;20.22;97.32
64644;BME280;51056;50.330;7.914;2023-06-22T05:10:48;100683.97;;;20.19;97.97
64644;BME280;51056;50.330;7.914;2023-06-22T05:13:52;100681.75;;;20.25;98.09
64644;BME280;51056;50.330;7.914;2023-06-22T05:16:55;100681.63;;;20.26;98.19
64644;BME280;51056;50.330;7.914;2023-06-22T05:20:05;100687.22;;;20.33;97.89
64644;BME280;51056;50.330;7.914;2023-06-22T05:23:09;100686.78;;;20.37;98.46
64644;BME280;51056;50.330;7.914;2023-06-22T05:26:13;100680.91;;;20.34;98.35
64644;BME280;51056;50.330;7.914;2023-06-22T05:29:17;100677.00;;;20.48;96.88
64644;BME280;51056;50.330;7.914;2023-06-22T05:32:20;100673.41;;;20.58;94.94
64644;BME280;51056;50.330;7.914;2023-06-22T05:35:24;100672.84;;;20.64;93.85
64644;BME280;51056;50.330;7.914;2023-06-22T05:38:27;100664.00;;;20.74;93.02
64644;BME280;51056;50.330;7.914;2023-06-22T05:41:30;100666.91;;;20.80;91.40
64644;BME280;51056;50.330;7.914;2023-06-22T05:44:34;100674.22;;;20.78;91.50
64644;BME280;51056;50.330;7.914;2023-06-22T05:47:41;100674.22;;;20.78;92.47
64644;BME280;51056;50.330;7.914;2023-06-22T05:50:45;100666.66;;;20.74;92.91
64644;BME280;51056;50.330;7.914;2023-06-22T05:53:49;100665.16;;;20.71;92.78
64644;BME280;51056;50.330;7.914;2023-06-22T05:57:20;100664.72;;;20.56;93.76
64644;BME280;51056;50.330;7.914;2023-06-22T06:00:26;100675.19;;;20.77;91.81
64644;BME280;51056;50.330;7.914;2023-06-22T06:03:34;100676.00;;;20.87;90.80
64644;BME280;51056;50.330;7.914;2023-06-22T06:06:44;100674.47;;;20.95;91.69
64644;BME280;51056;50.330;7.914;2023-06-22T06:09:50;100664.91;;;21.02;92.10
64644;BME280;51056;50.330;7.914;2023-06-22T06:12:54;100666.31;;;21.06;91.86
64644;BME280;51056;50.330;7.914;2023-06-22T06:15:59;100679.47;;;21.07;90.67
64644;BME280;51056;50.330;7.914;2023-06-22T06:19:07;100675.47;;;21.21;89.34
64644;BME280;51056;50.330;7.914;2023-06-22T06:22:12;100678.09;;;21.31;90.34
64644;BME280;51056;50.330;7.914;2023-06-22T06:25:15;100681.91;;;21.38;90.01
64644;BME280;51056;50.330;7.914;2023-06-22T06:28:19;100677.69;;;21.45;88.62
64644;BME280;51056;50.330;7.914;2023-06-22T06:31:22;100670.03;;;21.60;88.88
64644;BME280;51056;50.330;7.914;2023-06-22T06:34:26;100669.00;;;21.71;88.41
64644;BME280;51056;50.330;7.914;2023-06-22T06:37:30;100676.00;;;21.72;86.50
64644;BME280;51056;50.330;7.914;2023-06-22T06:40:40;100673.44;;;21.80;85.54
64644;BME280;51056;50.330;7.914;2023-06-22T06:43:47;100671.84;;;21.87;87.05
64644;BME280;51056;50.330;7.914;2023-06-22T06:46:52;100655.28;;;21.93;85.70
64644;BME280;51056;50.330;7.914;2023-06-22T06:49:58;100655.81;;;21.97;84.89
64644;BME280;51056;50.330;7.914;2023-06-22T06:53:01;100657.88;;;22.03;84.27
64644;BME280;51056;50.330;7.914;2023-06-22T06:56:11;100649.94;;;22.11;84.75
64644;BME280;51056;50.330;7.914;2023-06-22T06:59:15;100648.53;;;22.17;83.34
64644;BME280;51056;50.330;7.914;2023-06-22T07:02:19;100633.78;;;22.22;83.38
64644;BME280;51056;50.330;7.914;2023-06-22T07:05:23;100635.97;;;22.27;83.35
64644;BME280;51056;50.330;7.914;2023-06-22T07:08:26;100645.94;;;22.43;83.20
64644;BME280;51056;50.330;7.914;2023-06-22T07:11:29;100652.03;;;22.53;82.50
64644;BME280;51056;50.330;7.914;2023-06-22T07:14:36;100640.97;;;22.66;81.93
64644;BME280;51056;50.330;7.914;2023-06-22T07:17:42;100644.81;;;22.71;81.34
64644;BME280;51056;50.330;7.914;2023-06-22T07:20:46;100644.34;;;22.76;80.43
64644;BME280;51056;50.330;7.914;2023-06-22T07:23:50;100647.13;;;22.92;80.02
64644;BME280;51056;50.330;7.914;2023-06-22T07:26:53;100636.00;;;22.97;80.31
64644;BME280;51056;50.330;7.914;2023-06-22T07:29:57;100628.88;;;22.97;79.14
64644;BME280;51056;50.330;7.914;2023-06-22T07:33:02;100632.91;;;23.10;78.97
64644;BME280;51056;50.330;7.914;2023-06-22T07:36:09;100627.63;;;23.18;78.42
64644;BME280;51056;50.330;7.914;2023-06-22T07:43:39;100598.47;;;23.25;78.02
64644;BME280;51056;50.330;7.914;2023-06-22T07:46:48;100594.16;;;23.32;77.50
64644;BME280;51056;50.330;7.914;2023-06-22T07:49:52;100593.06;;;23.42;77.96
64644;BME280;51056;50.330;7.914;2023-06-22T07:53:01;100588.88;;;23.48;76.73
64644;BME280;51056;50.330;7.914;2023-06-22T07:56:04;100583.41;;;23.58;76.82
64644;BME280;51056;50.330;7.914;2023-06-22T07:59:12;100588.47;;;23.69;75.92
64644;BME280;51056;50.330;7.914;2023-06-22T08:02:16;100581.31;;;23.78;75.64
64644;BME280;51056;50.330;7.914;2023-06-22T08:05:21;100581.97;;;23.72;75.24
64644;BME280;51056;50.330;7.914;2023-06-22T08:08:26;100559.97;;;23.86;74.60
64644;BME280;51056;50.330;7.914;2023-06-22T08:11:29;100551.31;;;24.00;74.73
64644;BME280;51056;50.330;7.914;2023-06-22T08:14:37;100544.63;;;24.04;74.23
64644;BME280;51056;50.330;7.914;2023-06-22T08:17:44;100547.47;;;24.03;73.33
64644;BME280;51056;50.330;7.914;2023-06-22T08:20:47;100543.44;;;24.07;72.85
64644;BME280;51056;50.330;7.914;2023-06-22T08:23:50;100537.09;;;24.24;72.60
64644;BME280;51056;50.330;7.914;2023-06-22T08:26:54;100529.91;;;24.33;72.54
64644;BME280;51056;50.330;7.914;2023-06-22T08:29:59;100545.44;;;24.46;72.54
64644;BME280;51056;50.330;7.914;2023-06-22T08:33:03;100530.72;;;24.50;71.52
64644;BME280;51056;50.330;7.914;2023-06-22T08:36:06;100523.66;;;24.65;72.25
64644;BME280;51056;50.330;7.914;2023-06-22T08:39:11;100523.97;;;24.78;71.56
64644;BME280;51056;50.330;7.914;2023-06-22T08:42:14;100518.06;;;24.91;71.81
64644;BME280;51056;50.330;7.914;2023-06-22T08:45:18;100506.31;;;25.00;71.46
64644;BME280;51056;50.330;7.914;2023-06-22T08:48:21;100512.47;;;25.09;70.96
64644;BME280;51056;50.330;7.914;2023-06-22T08:51:25;100515.97;;;25.18;70.05
64644;BME280;51056;50.330;7.914;2023-06-22T08:54:28;100512.41;;;25.25;70.13
64644;BME280;51056;50.330;7.914;2023-06-22T08:57:31;100504.69;;;25.31;69.57
64644;BME280;51056;50.330;7.914;2023-06-22T09:00:35;100488.81;;;25.29;69.59
64644;BME280;51056;50.330;7.914;2023-06-22T09:03:38;100480.72;;;25.37;69.96
64644;BME280;51056;50.330;7.914;2023-06-22T09:06:43;100477.50;;;25.42;69.05
64644;BME280;51056;50.330;7.914;2023-06-22T09:09:48;100477.00;;;25.46;69.09
64644;BME280;51056;50.330;7.914;2023-06-22T09:12:51;100478.75;;;25.54;67.85
64644;BME280;51056;50.330;7.914;2023-06-22T09:15:55;100458.59;;;25.66;68.30
64644;BME280;51056;50.330;7.914;2023-06-22T09:18:58;100437.28;;;25.73;67.94
64644;BME280;51056;50.330;7.914;2023-06-22T09:22:02;100433.34;;;25.84;67.02
64644;BME280;51056;50.330;7.914;2023-06-22T09:25:06;100428.09;;;25.90;65.96
64644;BME280;51056;50.330;7.914;2023-06-22T09:28:10;100427.66;;;26.02;66.39
64644;BME280;51056;50.330;7.914;2023-06-22T09:31:13;100426.09;;;26.22;64.68
64644;BME280;51056;50.330;7.914;2023-06-22T09:34:17;100431.91;;;26.26;64.08
64644;BME280;51056;50.330;7.914;2023-06-22T09:37:23;100429.44;;;26.24;63.93
64644;BME280;51056;50.330;7.914;2023-06-22T09:40:26;100414.34;;;26.38;63.84
64644;BME280;51056;50.330;7.914;2023-06-22T09:43:32;100403.63;;;26.38;63.29
64644;BME280;51056;50.330;7.914;2023-06-22T09:46:35;100400.41;;;26.42;64.13
64644;BME280;51056;50.330;7.914;2023-06-22T09:49:38;100399.50;;;26.50;63.46
64644;BME280;51056;50.330;7.914;2023-06-22T09:52:42;100387.19;;;26.56;63.63
64644;BME280;51056;50.330;7.914;2023-06-22T09:55:47;100376.81;;;26.67;62.29
64644;BME280;51056;50.330;7.914;2023-06-22T09:58:51;100378.19;;;26.63;62.02
64644;BME280;51056;50.330;7.914;2023-06-22T10:01:55;100367.47;;;26.63;61.45
64644;BME280;51056;50.330;7.914;2023-06-22T10:04:59;100359.03;;;26.66;61.22
64644;BME280;51056;50.330;7.914;2023-06-22T10:08:02;100356.13;;;26.83;60.56
64644;BME280;51056;50.330;7.914;2023-06-22T10:11:06;100361.63;;;26.96;61.50
64644;BME280;51056;50.330;7.914;2023-06-22T10:14:10;100352.19;;;27.00;60.78
64644;BME280;51056;50.330;7.914;2023-06-22T10:17:14;100340.63;;;27.00;60.10
64644;BME280;51056;50.330;7.914;2023-06-22T10:20:17;100338.06;;;27.13;60.52
64644;BME280;51056;50.330;7.914;2023-06-22T10:23:22;100338.84;;;27.28;59.06
64644;BME280;51056;50.330;7.914;2023-06-22T10:26:25;100334.94;;;27.31;57.66
64644;BME280;51056;50.330;7.914;2023-06-22T10:29:32;100336.22;;;27.35;58.00
64644;BME280;51056;50.330;7.914;2023-06-22T10:32:35;100350.66;;;27.34;57.30
64644;BME280;51056;50.330;7.914;2023-06-22T10:35:40;100339.41;;;27.45;56.59
64644;BME280;51056;50.330;7.914;2023-06-22T10:38:43;100352.94;;;27.37;56.34
64644;BME280;51056;50.330;7.914;2023-06-22T10:41:47;100354.38;;;27.33;55.08
64644;BME280;51056;50.330;7.914;2023-06-22T10:44:51;100361.59;;;27.32;55.65
64644;BME280;51056;50.330;7.914;2023-06-22T10:47:55;100365.09;;;27.33;55.76
64644;BME280;51056;50.330;7.914;2023-06-22T10:50:58;100349.09;;;27.46;54.42
64644;BME280;51056;50.330;7.914;2023-06-22T10:54:02;100348.72;;;27.49;56.16
64644;BME280;51056;50.330;7.914;2023-06-22T10:57:07;100360.31;;;27.56;56.23
64644;BME280;51056;50.330;7.914;2023-06-22T11:00:11;100346.72;;;27.58;54.86
64644;BME280;51056;50.330;7.914;2023-06-22T11:03:22;100342.88;;;27.67;54.17
64644;BME280;51056;50.330;7.914;2023-06-22T11:06:25;100340.59;;;27.71;51.84
64644;BME280;51056;50.330;7.914;2023-06-22T11:09:29;100340.06;;;27.82;53.25
64644;BME280;51056;50.330;7.914;2023-06-22T11:12:35;100324.59;;;27.84;51.61
64644;BME280;51056;50.330;7.914;2023-06-22T11:15:39;100325.84;;;27.88;52.21
64644;BME280;51056;50.330;7.914;2023-06-22T11:18:43;100321.72;;;27.86;51.50
64644;BME280;51056;50.330;7.914;2023-06-22T11:21:46;100306.81;;;27.83;50.96
64644;BME280;51056;50.330;7.914;2023-06-22T11:24:50;100294.00;;;27.85;50.11
64644;BME280;51056;50.330;7.914;2023-06-22T11:27:53;100290.88;;;27.81;50.40
64644;BME280;51056;50.330;7.914;2023-06-22T11:30:56;100292.41;;;27.97;50.46
64644;BME280;51056;50.330;7.914;2023-06-22T11:34:00;100294.34;;;28.10;49.64
64644;BME280;51056;50.330;7.914;2023-06-22T11:37:04;100289.63;;;28.19;50.60
64644;BME280;51056;50.330;7.914;2023-06-22T11:40:08;100279.38;;;28.42;50.32
64644;BME280;51056;50.330;7.914;2023-06-22T11:43:12;100283.16;;;28.74;50.18
64644;BME280;51056;50.330;7.914;2023-06-22T11:46:18;100288.13;;;28.64;48.77
64644;BME280;51056;50.330;7.914;2023-06-22T11:49:22;100279.00;;;28.59;48.40
64644;BME280;51056;50.330;7.914;2023-06-22T11:52:25;100274.22;;;28.41;48.53
64644;BME280;51056;50.330;7.914;2023-06-22T11:55:30;100270.13;;;28.71;48.49
64644;BME280;51056;50.330;7.914;2023-06-22T11:58:33;100265.78;;;28.77;49.71
64644;BME280;51056;50.330;7.914;2023-06-22T12:01:36;100260.41;;;28.84;49.12
64644;BME280;51056;50.330;7.914;2023-06-22T12:04:40;100255.66;;;28.92;48.92
64644;BME280;51056;50.330;7.914;2023-06-22T12:07:43;100241.97;;;28.87;50.37
64644;BME280;51056;50.330;7.914;2023-06-22T12:10:47;100234.94;;;29.00;48.11
64644;BME280;51056;50.330;7.914;2023-06-22T12:13:50;100233.75;;;29.09;47.92
64644;BME280;51056;50.330;7.914;2023-06-22T12:16:57;100228.16;;;29.04;47.11
64644;BME280;51056;50.330;7.914;2023-06-22T12:20:01;100224.81;;;29.28;47.12
64644;BME280;51056;50.330;7.914;2023-06-22T12:23:07;100213.22;;;29.28;47.14
64644;BME280;51056;50.330;7.914;2023-06-22T12:26:10;100208.25;;;29.25;47.33
64644;BME280;51056;50.330;7.914;2023-06-22T12:29:17;100205.47;;;29.51;47.32
64644;BME280;51056;50.330;7.914;2023-06-22T12:32:26;100193.59;;;29.79;46.75
64644;BME280;51056;50.330;7.914;2023-06-22T12:35:29;100189.44;;;29.83;46.81
64644;BME280;51056;50.330;7.914;2023-06-22T12:38:33;100183.41;;;29.87;46.11
64644;BME280;51056;50.330;7.914;2023-06-22T12:41:37;100181.06;;;29.98;46.68
64644;BME280;51056;50.330;7.914;2023-06-22T12:44:40;100177.66;;;30.22;46.08
64644;BME280;51056;50.330;7.914;2023-06-22T12:48:09;100169.34;;;30.17;46.33
64644;BME280;51056;50.330;7.914;2023-06-22T12:51:20;100174.72;;;30.24;46.30
64644;BME280;51056;50.330;7.914;2023-06-22T12:54:25;100161.03;;;30.19;46.60
64644;BME280;51056;50.330;7.914;2023-06-22T12:57:29;100153.59;;;30.46;46.27
64644;BME280;51056;50.330;7.914;2023-06-22T13:00:32;100149.63;;;30.80;45.82
64644;BME280;51056;50.330;7.914;2023-06-22T13:03:35;100145.78;;;30.88;45.57
64644;BME280;51056;50.330;7.914;2023-06-22T13:06:39;100132.41;;;30.74;44.50
64644;BME280;51056;50.330;7.914;2023-06-22T13:09:42;100125.09;;;30.81;45.06
64644;BME280;51056;50.330;7.914;2023-06-22T13:12:48;100099.41;;;30.72;44.53
64644;BME280;51056;50.330;7.914;2023-06-22T13:15:52;100091.09;;;30.74;46.37
64644;BME280;51056;50.330;7.914;2023-06-22T13:18:55;100084.59;;;30.81;45.84
64644;BME280;51056;50.330;7.914;2023-06-22T13:21:59;100079.19;;;30.81;44.94
64644;BME280;51056;50.330;7.914;2023-06-22T13:26:14;100076.31;;;30.58;45.67
64644;BME280;51056;50.330;7.914;2023-06-22T13:29:17;100063.34;;;30.23;46.76
64644;BME280;51056;50.330;7.914;2023-06-22T13:32:26;100064.19;;;30.17;46.70
64644;BME280;51056;50.330;7.914;2023-06-22T13:35:30;100057.88;;;30.55;46.78
64644;BME280;51056;50.330;7.914;2023-06-22T13:38:35;100046.38;;;30.85;45.22
64644;BME280;51056;50.330;7.914;2023-06-22T13:41:44;100009.09;;;31.12;44.68
64644;BME280;51056;50.330;7.914;2023-06-22T13:44:47;100007.22;;;31.12;44.75
64644;BME280;51056;50.330;7.914;2023-06-22T13:47:50;100014.97;;;30.90;45.86
64644;BME280;51056;50.330;7.914;2023-06-22T13:50:54;99996.88;;;31.09;45.47
64644;BME280;51056;50.330;7.914;2023-06-22T13:53:58;99971.56;;;31.22;44.66
64644;BME280;51056;50.330;7.914;2023-06-22T13:57:02;99955.03;;;30.81;45.32
64644;BME280;51056;50.330;7.914;2023-06-22T14:00:06;99958.41;;;30.40;46.08
64644;BME280;51056;50.330;7.914;2023-06-22T14:03:15;99958.66;;;30.13;46.31
64644;BME280;51056;50.330;7.914;2023-06-22T14:06:21;99951.94;;;29.98;46.76
64644;BME280;51056;50.330;7.914;2023-06-22T14:09:24;99959.47;;;29.57;48.00
64644;BME280;51056;50.330;7.914;2023-06-22T14:12:29;99986.06;;;29.47;49.11
64644;BME280;51056;50.330;7.914;2023-06-22T14:15:33;100021.66;;;29.17;50.25
64644;BME280;51056;50.330;7.914;2023-06-22T14:18:36;100040.94;;;27.48;59.64
64644;BME280;51056;50.330;7.914;2023-06-22T14:21:41;100076.34;;;26.89;64.86
64644;BME280;51056;50.330;7.914;2023-06-22T14:24:47;100073.28;;;26.92;68.71
64644;BME280;51056;50.330;7.914;2023-06-22T14:27:51;100077.94;;;26.77;71.82
64644;BME280;51056;50.330;7.914;2023-06-22T14:30:54;100054.97;;;26.39;71.17
64644;BME280;51056;50.330;7.914;2023-06-22T14:33:58;100040.84;;;25.81;74.65
64644;BME280;51056;50.330;7.914;2023-06-22T14:37:02;100061.31;;;25.52;76.83
64644;BME280;51056;50.330;7.914;2023-06-22T14:40:07;100058.81;;;25.15;76.74
64644;BME280;51056;50.330;7.914;2023-06-22T14:43:11;100071.44;;;25.06;79.72
64644;BME280;51056;50.330;7.914;2023-06-22T14:46:17;100256.69;;;24.00;84.79
64644;BME280;51056;50.330;7.914;2023-06-22T14:58:51;100103.13;;;23.33;89.33
64644;BME280;51056;50.330;7.914;2023-06-22T15:01:58;100095.28;;;23.32;90.26
64644;BME280;51056;50.330;7.914;2023-06-22T15:15:54;100141.94;;;22.47;90.92
64644;BME280;51056;50.330;7.914;2023-06-22T15:18:59;100165.88;;;22.39;90.98
64644;BME280;51056;50.330;7.914;2023-06-22T15:22:15;100164.72;;;22.74;91.64
64644;BME280;51056;50.330;7.914;2023-06-22T15:25:21;100151.06;;;22.86;90.42
64644;BME280;51056;50.330;7.914;2023-06-22T15:28:27;100154.41;;;22.55;87.21
64644;BME280;51056;50.330;7.914;2023-06-22T15:31:36;100172.56;;;22.60;88.42
64644;BME280;51056;50.330;7.914;2023-06-22T15:34:40;100190.19;;;22.52;89.56
64644;BME280;51056;50.330;7.914;2023-06-22T15:37:45;100185.22;;;22.41;88.60
64644;BME280;51056;50.330;7.914;2023-06-22T15:41:03;100162.41;;;22.63;90.15
64644;BME280;51056;50.330;7.914;2023-06-22T15:44:12;100184.69;;;22.46;85.83
64644;BME280;51056;50.330;7.914;2023-06-22T15:47:18;100246.34;;;22.51;89.49
64644;BME280;51056;50.330;7.914;2023-06-22T15:50:30;100233.81;;;22.35;87.77
64644;BME280;51056;50.330;7.914;2023-06-22T15:53:33;100227.47;;;22.28;87.62
64644;BME280;51056;50.330;7.914;2023-06-22T15:56:37;100209.00;;;22.43;89.41
64644;BME280;51056;50.330;7.914;2023-06-22T15:59:41;100195.53;;;22.36;87.72
64644;BME280;51056;50.330;7.914;2023-06-22T16:02:45;100162.75;;;22.44;90.51
64644;BME280;51056;50.330;7.914;2023-06-22T16:05:50;100125.13;;;22.47;91.42
64644;BME280;51056;50.330;7.914;2023-06-22T16:08:55;100113.31;;;22.49;91.91
64644;BME280;51056;50.330;7.914;2023-06-22T16:11:59;100116.28;;;22.55;91.04
64644;BME280;51056;50.330;7.914;2023-06-22T16:15:03;100103.94;;;22.62;90.26
64644;BME280;51056;50.330;7.914;2023-06-22T16:18:28;100113.78;;;22.53;93.08
64644;BME280;51056;50.330;7.914;2023-06-22T16:22:13;100099.13;;;22.57;90.84
64644;BME280;51056;50.330;7.914;2023-06-22T16:42:09;100088.72;;;23.03;91.56
64644;BME280;51056;50.330;7.914;2023-06-22T16:45:14;100091.84;;;23.15;90.52
64644;BME280;51056;50.330;7.914;2023-06-22T16:48:35;100115.13;;;23.29;91.61
64644;BME280;51056;50.330;7.914;2023-06-22T16:51:44;100123.81;;;23.31;89.60
64644;BME280;51056;50.330;7.914;2023-06-22T16:59:32;100126.06;;;23.51;86.94
64644;BME280;51056;50.330;7.914;2023-06-22T17:07:42;100116.13;;;23.36;87.83
64644;BME280;51056;50.330;7.914;2023-06-22T17:11:11;100120.78;;;23.42;89.53